Marathon, FL

5:08 AM EDT on September 02, 2015 (GMT -0400)
Big Coppitt Key Gulfside | | Change Station
CLOSE
Current Station
Personal Weather Station
Location: Key West, FL
Elevation: 31 ft
Nearby Weather Stations

Elev 31 ft 24.60 °N, 81.67 °W | Updated 13 minutes ago

Partly Cloudy
Partly Cloudy
83.7 °F
Feels Like 94 °F
N
4.7
Wind Variable Wind from ESE

Today
High -- | Low -- °F
--% Chance of Precip.
Yesterday
High -- | Low -- °F
Precip. -- in
7:08 AM 7:44 PM
Waning Gibbous, 82% visible
Pressure 30.03 in
Visibility -9999.0 miles
Clouds Few 3100 ft
Heat Index 94 °F
Dew Point 77 °F
Humidity 81%
Rainfall 0.00 in
Snow Depth Not available.
UV 0 out of 12
Pollen 5.30 out of 12
Air Quality Not available.
Flu Activity Not available.
METAR KEYW 020853Z AUTO 13008KT FEW031 29/24 A3003 RMK AO2 SLP168 60000 T02940244 56008 $
Pressure 30.03 in
Visibility -9999.0 miles
Clouds Few 3100 ft
Heat Index 94 °F
Dew Point 77 °F
Humidity 81%
Rainfall 0.00 in
Snow Depth Not available.
UV 0 out of 12
Pollen 5.30 out of 12
Air Quality Not available.
Flu Activity Not available.
METAR KEYW 020853Z AUTO 13008KT FEW031 29/24 A3003 RMK AO2 SLP168 60000 T02940244 56008 $
Nowcast | as of 3:56 am EDT on September 2, 2015

Until 500 am...isolated showers will move northwest at around 10 knots through the coastal waters of the Florida Keys. Mariners and boaters should prepare for brief periods of poor visibility within small pockets of moderate to heavy rainfall.

×

10-Day Weather Forecast

×

Almanac

Astronomy

Sep. 02, 2015 Rise Set
Actual Time
Civil Twilight
Nautical Twilight
Astronomical Twilight
Moon
Length of Visible Light
Length of Day
Tomorrow will be .
, % of the Moon is Illuminated

Today's Extremes

State Highs State Lows

Community

WunderPhotos

Upload Photos

1,851,728 photos uploaded!

WunderBlogs® & News

Nearby

Air Quality

  Air Quality AQ Index Pollutant
Not available.

Snow Depth

Station Depth Elevation

Earthquake Activity

City Distance Mag. Time & Date
Minimum magnitude displayed is 2.5.

Coastal Water Temperatures

Place Temperature

Stations

Nearby Weather Stations

Station Location Temp. Windchill Dew Point Humidity Wind Precip. Elev Updated Type